createdAt,value
2022-09-26T00:01:11.416Z,80.3
2022-09-26T00:03:39.632Z,80.3
2022-09-26T00:06:07.920Z,80.2
2022-09-26T00:07:22.024Z,80.2
2022-09-26T00:08:32.924Z,80.2
2022-09-26T00:10:57.921Z,80.3
2022-09-26T00:12:12.032Z,80.4
2022-09-26T00:14:40.298Z,80.4
2022-09-26T00:15:54.385Z,80.5
2022-09-26T00:17:08.528Z,80.3
2022-09-26T00:19:36.826Z,80.3
2022-09-26T00:20:50.940Z,80
2022-09-26T00:23:12.690Z,80
2022-09-26T00:24:26.825Z,80
2022-09-26T00:26:55.035Z,80.2
2022-09-26T00:28:09.205Z,80.3
2022-09-26T00:31:51.548Z,80.6
2022-09-26T00:33:05.676Z,80.5
2022-09-26T00:34:19.823Z,80.6
2022-09-26T00:35:30.665Z,80.5
2022-09-26T00:36:41.588Z,80.3
2022-09-26T00:37:55.720Z,80.3
2022-09-26T00:40:23.936Z,80.2
2022-09-26T00:42:52.243Z,80.4
2022-09-26T00:44:06.355Z,80.4
2022-09-26T00:45:20.473Z,80.3
2022-09-26T00:46:34.556Z,80.2
2022-09-26T00:47:48.721Z,80.3
2022-09-26T00:48:59.583Z,80.3
2022-09-26T00:50:09.988Z,80.4
2022-09-26T00:51:24.165Z,80.5
2022-09-26T00:52:38.289Z,80.5
2022-09-26T00:55:06.549Z,80.5
2022-09-26T00:56:20.662Z,80.5
2022-09-26T00:58:48.907Z,80.6
2022-09-26T01:00:03.024Z,80.5
2022-09-26T01:01:17.177Z,80.5
2022-09-26T01:02:28.008Z,80.6
2022-09-26T01:03:38.908Z,80.7
2022-09-26T01:07:21.250Z,80.9
2022-09-26T01:08:35.421Z,80.9
2022-09-26T01:09:49.528Z,81
2022-09-26T01:12:17.764Z,81.2
2022-09-26T01:13:31.953Z,81.2
2022-09-26T01:14:46.018Z,81.2
2022-09-26T01:15:56.944Z,81.2
2022-09-26T01:17:07.749Z,81.3
2022-09-26T01:19:36.007Z,81.1
2022-09-26T01:20:50.140Z,81.1
2022-09-26T01:23:18.454Z,80.9
2022-09-26T01:25:46.680Z,81
2022-09-26T01:28:14.967Z,81
2022-09-26T01:31:50.812Z,81.3
2022-09-26T01:33:04.905Z,81.2
2022-09-26T01:34:19.048Z,81
2022-09-26T01:35:33.159Z,80.9
2022-09-26T01:36:47.330Z,81
2022-09-26T01:38:01.420Z,81.2
2022-09-26T01:39:15.531Z,81.3
2022-09-26T01:40:29.674Z,81.3
2022-09-26T01:42:54.656Z,81.1
2022-09-26T01:44:05.523Z,81.1
2022-09-26T01:45:19.681Z,81.2
2022-09-26T01:47:47.904Z,81.2
2022-09-26T01:49:02.084Z,81
2022-09-26T01:50:16.157Z,81
2022-09-26T01:51:30.315Z,81.1
2022-09-26T01:52:44.437Z,81.1
2022-09-26T01:55:12.716Z,80.9
2022-09-26T01:56:23.104Z,80.8
2022-09-26T01:57:34.009Z,80.9
2022-09-26T02:01:16.381Z,81.2
2022-09-26T02:02:30.515Z,81.3
2022-09-26T02:03:44.608Z,81.4
2022-09-26T02:04:58.790Z,81.4
2022-09-26T02:06:12.924Z,81.3
2022-09-26T02:09:52.055Z,81.4
2022-09-26T02:11:02.886Z,81.4
2022-09-26T02:12:17.019Z,81.4
2022-09-26T02:13:31.110Z,81.4
2022-09-26T02:14:45.309Z,81.3
2022-09-26T02:15:59.379Z,81.4
2022-09-26T02:19:41.769Z,81.6
2022-09-26T02:20:55.936Z,81.6
2022-09-26T02:23:20.877Z,81.6
2022-09-26T02:27:00.060Z,81.4
2022-09-26T02:29:28.316Z,81.7
2022-09-26T02:30:42.382Z,81.6
2022-09-26T02:31:56.517Z,81.6
2022-09-26T02:33:10.656Z,81.6
2022-09-26T02:35:38.967Z,81.7
2022-09-26T02:38:00.638Z,81.9
2022-09-26T02:39:14.764Z,82
2022-09-26T02:40:28.943Z,82.1
2022-09-26T02:44:11.297Z,81.9
2022-09-26T02:45:25.417Z,82
2022-09-26T02:46:39.595Z,82.1
2022-09-26T02:47:53.709Z,82.2
2022-09-26T02:49:07.813Z,82.1
2022-09-26T02:50:18.675Z,82.2
2022-09-26T02:51:29.536Z,82.2
2022-09-26T02:52:43.703Z,82.3
2022-09-26T02:53:57.841Z,82.2
2022-09-26T02:57:40.208Z,82
2022-09-26T02:58:54.312Z,82
2022-09-26T03:00:08.469Z,82.1
2022-09-26T03:01:22.614Z,82.1
2022-09-26T03:02:36.703Z,82.2
2022-09-26T03:03:47.157Z,82.2
2022-09-26T03:04:57.972Z,82.2
2022-09-26T03:06:12.100Z,82.1
2022-09-26T03:07:26.223Z,82.1
2022-09-26T03:08:40.364Z,82.2
2022-09-26T03:09:54.540Z,82.3
2022-09-26T03:11:08.621Z,81.9
2022-09-26T03:12:22.747Z,82
2022-09-26T03:13:36.871Z,82
2022-09-26T03:14:51.034Z,82
2022-09-26T03:16:05.157Z,81.9
2022-09-26T03:17:16.025Z,82
2022-09-26T03:18:26.892Z,82
2022-09-26T03:19:41.025Z,82.1
2022-09-26T03:20:55.153Z,82.2
2022-09-26T03:22:09.341Z,82.3
2022-09-26T03:23:31.559Z,82.3
2022-09-26T03:25:59.885Z,82.5
2022-09-26T03:27:13.972Z,82.6
2022-09-26T03:28:28.114Z,82.5
2022-09-26T03:29:38.977Z,82.5
2022-09-26T03:30:49.858Z,82.6
2022-09-26T03:32:03.984Z,82.7
2022-09-26T03:34:32.241Z,82.9
2022-09-26T03:35:46.324Z,82.9
2022-09-26T03:37:00.443Z,82.8
2022-09-26T03:38:14.602Z,82.7
2022-09-26T03:40:51.072Z,82.7
2022-09-26T03:44:26.898Z,82.5
2022-09-26T03:45:41.123Z,82.5
2022-09-26T03:47:03.392Z,82.6
2022-09-26T03:49:31.584Z,82.8
2022-09-26T03:50:45.759Z,82.8
2022-09-26T03:51:59.965Z,82.8
2022-09-26T03:53:22.209Z,82.8
2022-09-26T03:54:33.090Z,82.8
2022-09-26T03:55:43.975Z,82.7
2022-09-26T03:56:58.038Z,82.6
2022-09-26T03:59:26.284Z,82.8
2022-09-26T04:00:40.433Z,82.8
2022-09-26T04:01:54.569Z,82.6
2022-09-26T04:03:08.724Z,82.5
2022-09-26T04:04:22.854Z,82.6
2022-09-26T04:06:51.091Z,82.7
2022-09-26T04:08:01.511Z,82.8
2022-09-26T04:10:26.495Z,83
2022-09-26T04:11:40.605Z,82.8
2022-09-26T04:12:54.781Z,82.8
2022-09-26T04:15:23.012Z,82.8
2022-09-26T04:16:37.156Z,82.8
2022-09-26T04:17:51.256Z,82.9
2022-09-26T04:19:05.371Z,83
2022-09-26T04:21:30.366Z,82.9
2022-09-26T04:22:41.244Z,82.9
2022-09-26T04:23:55.392Z,82.9
2022-09-26T04:25:09.503Z,82.9
2022-09-26T04:26:23.679Z,82.8
2022-09-26T04:27:37.775Z,82.9
2022-09-26T04:28:51.906Z,82.9
2022-09-26T04:31:20.137Z,83
2022-09-26T04:32:34.282Z,83
2022-09-26T04:33:48.417Z,83.1
2022-09-26T04:34:59.261Z,83.1
2022-09-26T04:36:10.157Z,83.3
2022-09-26T04:37:24.289Z,83.3
2022-09-26T04:39:52.501Z,83.3
2022-09-26T04:41:06.641Z,83.3
2022-09-26T04:43:34.902Z,83.3
2022-09-26T04:52:07.312Z,83.5
2022-09-26T04:53:21.453Z,83.5
2022-09-26T04:54:35.512Z,83.5
2022-09-26T04:58:17.943Z,83.7
2022-09-26T04:59:32.031Z,83.6
2022-09-26T05:00:46.151Z,83.6
2022-09-26T05:03:07.916Z,83.5
2022-09-26T05:04:22.028Z,83.5
2022-09-26T05:05:36.144Z,83.5
2022-09-26T05:06:50.326Z,83.5
2022-09-26T05:08:04.451Z,83.3
2022-09-26T05:10:32.723Z,83.5
2022-09-26T05:11:46.853Z,83.5
2022-09-26T05:13:00.949Z,83.5
2022-09-26T05:15:25.962Z,83.5
2022-09-26T05:16:36.372Z,83.3
2022-09-26T05:17:50.487Z,83.4
2022-09-26T05:19:04.635Z,83.5
2022-09-26T05:22:46.991Z,83.7
2022-09-26T05:25:15.273Z,83.7
2022-09-26T05:26:29.400Z,83.6
2022-09-26T05:27:43.551Z,83.5
2022-09-26T05:28:54.422Z,83.6
2022-09-26T05:30:05.280Z,83.6
2022-09-26T05:31:19.406Z,83.7
2022-09-26T05:32:33.506Z,83.8
2022-09-26T05:33:47.677Z,83.9
2022-09-26T05:36:15.870Z,83.9
2022-09-26T05:37:30.034Z,83.8
2022-09-26T05:38:44.159Z,83.8
2022-09-26T05:39:58.268Z,83.9
2022-09-26T05:41:12.397Z,83.9
2022-09-26T05:42:23.319Z,83.9
2022-09-26T05:43:34.171Z,83.8
2022-09-26T05:44:48.312Z,83.8
2022-09-26T05:46:02.423Z,83.8
2022-09-26T05:47:16.571Z,84
2022-09-26T05:48:30.631Z,84
2022-09-26T05:49:44.754Z,83.8
2022-09-26T05:52:21.270Z,83.8
2022-09-26T05:54:46.248Z,83.9
2022-09-26T05:55:57.106Z,83.9
2022-09-26T05:59:39.474Z,83.7
2022-09-26T06:00:53.634Z,83.7
2022-09-26T06:02:07.746Z,83.8
2022-09-26T06:03:21.866Z,83.7
2022-09-26T06:05:50.111Z,83.6
2022-09-26T06:07:04.256Z,83.7
2022-09-26T06:08:15.143Z,83.5
2022-09-26T06:09:25.551Z,83.5
2022-09-26T06:10:39.665Z,83.6
2022-09-26T06:13:07.936Z,83
2022-09-26T06:16:50.338Z,82.7
2022-09-26T06:18:04.415Z,82.7
2022-09-26T06:19:18.560Z,82.7
2022-09-26T06:20:32.682Z,82.6
2022-09-26T06:21:43.597Z,82.7
2022-09-26T06:24:08.573Z,82.8
2022-09-26T06:25:22.666Z,82.9
2022-09-26T06:26:36.821Z,82.3
2022-09-26T06:27:50.912Z,82.1
2022-09-26T06:30:19.187Z,81.9
2022-09-26T06:32:47.438Z,81.7
2022-09-26T06:35:12.446Z,81.3
2022-09-26T06:36:23.357Z,80.9
2022-09-26T06:37:37.427Z,80.9
2022-09-26T06:38:51.563Z,80.8
2022-09-26T06:40:05.729Z,80.3
2022-09-26T06:41:19.852Z,80.3
2022-09-26T06:42:33.982Z,80.5
2022-09-26T06:43:48.114Z,80.6
2022-09-26T06:45:02.201Z,80.3
2022-09-26T06:46:16.369Z,80.3
2022-09-26T06:48:41.322Z,79.8
2022-09-26T06:49:52.198Z,79.6
2022-09-26T06:51:06.372Z,79.2
2022-09-26T06:52:20.429Z,79.1
2022-09-26T06:53:34.568Z,79.2
2022-09-26T06:54:48.723Z,79.2
2022-09-26T06:56:02.876Z,78.9
2022-09-26T06:58:31.078Z,78.7
2022-09-26T07:00:59.349Z,78.1
2022-09-26T07:03:20.693Z,78
2022-09-26T07:04:34.822Z,78
2022-09-26T07:05:48.894Z,77.8
2022-09-26T07:08:17.169Z,78
2022-09-26T07:09:31.335Z,77.9
2022-09-26T07:10:45.455Z,77.8
2022-09-26T07:13:13.699Z,77.7
2022-09-26T07:14:27.797Z,77.9
2022-09-26T07:15:38.702Z,77.6
2022-09-26T07:18:03.636Z,77.8
2022-09-26T07:19:17.809Z,77.4
2022-09-26T07:20:31.934Z,77.4
2022-09-26T07:21:46.049Z,77.3
2022-09-26T07:23:00.190Z,77.4
2022-09-26T07:25:28.425Z,77.3
2022-09-26T07:26:42.609Z,77.1
2022-09-26T07:29:07.539Z,77.1
2022-09-26T07:30:18.427Z,77.2
2022-09-26T07:31:32.534Z,77.3
2022-09-26T07:34:00.844Z,77.5
2022-09-26T07:35:14.961Z,77.5
2022-09-26T07:37:43.203Z,77.6
2022-09-26T07:38:57.319Z,77.6
2022-09-26T07:41:25.597Z,77.5
2022-09-26T07:42:36.439Z,77
2022-09-26T07:43:47.294Z,77.2
2022-09-26T07:45:01.452Z,77.4
2022-09-26T07:46:15.538Z,77.4
2022-09-26T07:47:29.721Z,77.4
2022-09-26T07:48:43.863Z,77.1
2022-09-26T07:49:57.984Z,77
2022-09-26T07:52:26.239Z,76.7
2022-09-26T07:53:40.340Z,76.8
2022-09-26T07:54:54.437Z,76.9
2022-09-26T07:56:05.312Z,76.8
2022-09-26T08:00:58.550Z,76.4
2022-09-26T08:03:35.054Z,76.9
2022-09-26T08:06:03.316Z,77.2
2022-09-26T08:07:17.531Z,77.4
2022-09-26T08:10:53.377Z,76.8
2022-09-26T08:12:07.465Z,76.5
2022-09-26T08:13:21.640Z,76.8
2022-09-26T08:14:35.764Z,76.8
2022-09-26T08:15:49.859Z,77
2022-09-26T08:17:03.965Z,77.3
2022-09-26T08:18:18.097Z,77.4
2022-09-26T08:19:32.245Z,77.2
2022-09-26T08:20:46.398Z,77.3
2022-09-26T08:21:57.262Z,77.4
2022-09-26T08:24:21.818Z,77.6
2022-09-26T08:25:35.923Z,77.8
2022-09-26T08:28:04.197Z,77
2022-09-26T08:29:18.330Z,76.6
2022-09-26T08:30:32.416Z,76.6
2022-09-26T08:31:46.551Z,76.2
2022-09-26T08:35:25.700Z,77
2022-09-26T08:36:36.600Z,77
2022-09-26T08:42:47.184Z,78.1
2022-09-26T08:46:29.611Z,78.1
2022-09-26T08:47:43.744Z,77.7
2022-09-26T08:48:54.625Z,77.8
2022-09-26T08:51:19.568Z,77.8
2022-09-26T08:52:33.720Z,77.7
2022-09-26T08:55:02.005Z,78
2022-09-26T08:56:16.089Z,78.3
2022-09-26T08:58:44.353Z,78
2022-09-26T08:59:58.489Z,78.4
2022-09-26T09:02:23.530Z,78.9
2022-09-26T09:03:34.353Z,79.1
2022-09-26T09:04:48.519Z,79.2
2022-09-26T09:06:02.622Z,79.2
2022-09-26T09:10:59.127Z,79.6
2022-09-26T09:12:13.246Z,79.8
2022-09-26T09:13:27.354Z,79.8
2022-09-26T09:17:03.231Z,80.6
2022-09-26T09:18:17.341Z,80.8
2022-09-26T09:19:31.493Z,81.1
2022-09-26T09:20:45.628Z,81.1
2022-09-26T09:23:13.853Z,81.2
2022-09-26T09:24:28.029Z,81.1
2022-09-26T09:25:42.160Z,81.3
2022-09-26T09:26:56.242Z,81.6
2022-09-26T09:28:10.359Z,82.3
2022-09-26T09:29:21.230Z,82.3
2022-09-26T09:30:32.087Z,82.6
2022-09-26T09:31:46.266Z,82.9
2022-09-26T09:33:00.364Z,83.1
2022-09-26T09:34:14.511Z,83.3
2022-09-26T09:36:42.761Z,83.8
2022-09-26T09:39:11.033Z,84.1
2022-09-26T09:40:25.170Z,84.2
2022-09-26T09:41:39.276Z,84.2
2022-09-26T09:42:50.115Z,84.3
2022-09-26T09:44:01.048Z,84.1
2022-09-26T09:45:15.127Z,83.6
2022-09-26T09:47:43.351Z,84.1
2022-09-26T09:51:25.760Z,84.5
2022-09-26T09:52:39.901Z,84.8
2022-09-26T09:53:54.030Z,84.8
2022-09-26T09:56:18.987Z,84.9
2022-09-26T09:58:43.992Z,84.5
2022-09-26T09:59:58.129Z,84.5
2022-09-26T10:01:12.304Z,84.5
2022-09-26T10:02:26.398Z,84.7
2022-09-26T10:03:40.524Z,84.8
2022-09-26T10:04:54.669Z,85
2022-09-26T10:06:08.792Z,85.4
2022-09-26T10:07:22.945Z,85.5
2022-09-26T10:10:58.808Z,85.7
2022-09-26T10:12:12.901Z,85.8
2022-09-26T10:13:27.024Z,86
2022-09-26T10:15:55.276Z,86
2022-09-26T10:17:09.421Z,85.8
2022-09-26T10:18:23.560Z,85.5
2022-09-26T10:19:37.649Z,85.6
2022-09-26T10:22:05.941Z,85.8
2022-09-26T10:24:27.623Z,85.6
2022-09-26T10:25:41.799Z,85.3
2022-09-26T10:28:10.021Z,85.7
2022-09-26T10:29:24.190Z,86.1
2022-09-26T10:31:52.457Z,86.6
2022-09-26T10:33:06.555Z,86.7
2022-09-26T10:34:20.691Z,86.8
2022-09-26T10:35:34.785Z,86.7
2022-09-26T10:36:45.643Z,86.7
2022-09-26T10:37:56.571Z,86.9
2022-09-26T10:40:24.774Z,87.2
2022-09-26T10:41:38.907Z,86.6
2022-09-26T10:42:53.016Z,86.9
2022-09-26T10:44:07.211Z,87
2022-09-26T10:45:21.328Z,87.1
2022-09-26T10:46:35.451Z,87.3
2022-09-26T10:47:49.537Z,86.8
2022-09-26T10:50:14.557Z,87.2
2022-09-26T10:51:25.404Z,87
2022-09-26T10:52:39.537Z,87.2
2022-09-26T10:55:07.804Z,87.4
2022-09-26T10:56:21.953Z,87.8
2022-09-26T10:57:36.069Z,87.8
2022-09-26T10:58:50.168Z,88
2022-09-26T11:00:04.351Z,87.9
2022-09-26T11:01:18.454Z,87.7
2022-09-26T11:02:32.559Z,87.4
2022-09-26T11:03:43.475Z,87.6
2022-09-26T11:04:54.333Z,87.5
2022-09-26T11:06:08.447Z,87
2022-09-26T11:07:22.540Z,86.9
2022-09-26T11:08:36.667Z,87
2022-09-26T11:09:50.827Z,86.5
2022-09-26T11:12:19.100Z,86.4
2022-09-26T11:13:33.223Z,86.4
2022-09-26T11:14:47.301Z,86.1
2022-09-26T11:16:01.436Z,86.1
2022-09-26T11:17:11.900Z,86.2
2022-09-26T11:18:22.737Z,86.1
2022-09-26T11:19:36.916Z,86.1
2022-09-26T11:20:51.021Z,86.1
2022-09-26T11:24:41.603Z,85.3
2022-09-26T11:25:55.695Z,85.2
2022-09-26T11:27:09.829Z,84.9
2022-09-26T11:30:45.679Z,84.3
2022-09-26T11:31:59.837Z,84.1
2022-09-26T11:33:13.981Z,84.3
2022-09-26T11:34:28.083Z,84.2
2022-09-26T11:35:42.187Z,83.9
2022-09-26T11:36:56.360Z,83.7
2022-09-26T11:38:10.460Z,83
2022-09-26T11:39:24.585Z,83
2022-09-26T11:40:38.725Z,83
2022-09-26T11:43:03.733Z,82.5
2022-09-26T11:44:14.631Z,81.7
2022-09-26T11:45:28.713Z,80.9
2022-09-26T11:49:11.097Z,80.8
2022-09-26T11:50:25.274Z,80.6
2022-09-26T11:52:53.525Z,81
2022-09-26T11:54:07.649Z,80.5
2022-09-26T11:55:21.755Z,80.5
2022-09-26T11:56:32.600Z,80
2022-09-26T11:57:43.477Z,79.7
2022-09-26T11:58:57.624Z,79.7
2022-09-26T12:01:25.849Z,80.2
2022-09-26T12:02:39.964Z,79.9
2022-09-26T12:03:54.141Z,79.6
2022-09-26T12:05:08.217Z,79.2
2022-09-26T12:06:22.408Z,78.5
2022-09-26T12:07:36.476Z,78.3
2022-09-26T12:10:01.505Z,78
2022-09-26T12:11:12.363Z,77.3
2022-09-26T12:13:40.645Z,76.8
2022-09-26T12:16:17.072Z,77
2022-09-26T12:17:31.202Z,76.6
2022-09-26T12:19:59.446Z,75.8
2022-09-26T12:21:13.654Z,75.5
2022-09-26T12:22:24.527Z,75.9
2022-09-26T12:23:35.409Z,76.2
2022-09-26T12:24:49.540Z,76.6
2022-09-26T12:26:03.648Z,76.6
2022-09-26T12:27:17.801Z,76.1
2022-09-26T12:28:31.877Z,75.9
2022-09-26T12:31:00.199Z,75.6
2022-09-26T12:32:14.261Z,75.9
2022-09-26T12:33:28.449Z,75.2
2022-09-26T12:34:42.578Z,75
2022-09-26T12:38:18.400Z,75.4
2022-09-26T12:40:46.642Z,75.8
2022-09-26T12:42:00.798Z,75.2
2022-09-26T12:43:14.896Z,74.8
2022-09-26T12:44:29.023Z,74.8
2022-09-26T12:45:43.202Z,75
2022-09-26T12:49:22.304Z,75
2022-09-26T12:50:33.161Z,75.3
2022-09-26T12:51:47.274Z,75.5
2022-09-26T12:53:01.402Z,75.7
2022-09-26T12:54:15.520Z,75.8
2022-09-26T12:55:29.666Z,75.7
2022-09-26T12:57:57.970Z,75
2022-09-26T13:00:26.215Z,75.4
2022-09-26T13:01:40.342Z,75.5
2022-09-26T13:02:51.213Z,75.6
2022-09-26T13:04:02.082Z,75
2022-09-26T13:05:16.168Z,75.6
2022-09-26T13:06:30.311Z,75.7
2022-09-26T13:08:58.552Z,75.9
2022-09-26T13:10:12.680Z,76.2
2022-09-26T13:11:26.852Z,76.6
2022-09-26T13:13:55.060Z,77.5
2022-09-26T13:15:09.241Z,78.1
2022-09-26T13:16:20.058Z,78.8
2022-09-26T13:17:30.905Z,79.3
2022-09-26T13:18:45.045Z,79.7
2022-09-26T13:19:59.192Z,79.9
2022-09-26T13:21:13.357Z,80.5
2022-09-26T13:23:41.584Z,81.3
2022-09-26T13:24:55.699Z,82.1
2022-09-26T13:26:09.861Z,82
2022-09-26T13:27:23.938Z,81.9
2022-09-26T13:29:48.989Z,82.1
2022-09-26T13:30:59.802Z,82.3
2022-09-26T13:32:13.964Z,82.8
2022-09-26T13:33:28.088Z,83.2
2022-09-26T13:34:42.237Z,83.3
2022-09-26T13:35:56.316Z,83
2022-09-26T13:37:10.428Z,83.5
2022-09-26T13:38:24.580Z,83.6
2022-09-26T13:39:38.749Z,83.7
2022-09-26T13:42:06.947Z,83.9
2022-09-26T13:44:28.307Z,83.8
2022-09-26T13:45:42.432Z,84
2022-09-26T13:50:38.881Z,84.4
2022-09-26T13:51:53.019Z,84.6
2022-09-26T13:53:07.150Z,84.5
2022-09-26T13:54:21.304Z,84.6
2022-09-26T13:55:35.421Z,84.7
2022-09-26T13:56:46.308Z,85
2022-09-26T13:57:57.161Z,85.2
2022-09-26T13:59:11.246Z,85.2
2022-09-26T14:00:25.413Z,85.3
2022-09-26T14:01:39.557Z,85.5
2022-09-26T14:02:53.684Z,85.4
2022-09-26T14:04:07.837Z,85.7
2022-09-26T14:05:21.956Z,86.2
2022-09-26T14:06:36.092Z,86.5
2022-09-26T14:07:50.180Z,86.7
2022-09-26T14:09:04.333Z,86.8
2022-09-26T14:10:15.191Z,87
2022-09-26T14:11:26.014Z,87.3
2022-09-26T14:12:40.200Z,87.2
2022-09-26T14:13:54.334Z,87.1
2022-09-26T14:15:08.435Z,87.1
2022-09-26T14:16:22.632Z,87
2022-09-26T14:17:44.887Z,86.8
2022-09-26T14:18:59.008Z,87.2
2022-09-26T14:20:13.148Z,87.4
2022-09-26T14:21:27.287Z,87.7
2022-09-26T14:22:38.128Z,87.7
2022-09-26T14:23:49.008Z,87.8
2022-09-26T14:25:03.154Z,87.9
2022-09-26T14:26:17.254Z,88
2022-09-26T14:27:31.381Z,88
2022-09-26T14:28:45.490Z,88
2022-09-26T14:29:59.657Z,88.1
2022-09-26T14:31:13.857Z,88.1
2022-09-26T14:32:36.077Z,88.2
2022-09-26T14:33:50.177Z,88.6
2022-09-26T14:36:11.902Z,88.6
2022-09-26T14:37:26.084Z,88.6
2022-09-26T14:38:40.218Z,88.6
2022-09-26T14:39:54.328Z,88.7
2022-09-26T14:42:22.568Z,89
2022-09-26T14:43:36.707Z,89.2
2022-09-26T14:44:50.850Z,89.5
2022-09-26T14:46:04.942Z,89.6
2022-09-26T14:47:19.200Z,89.8
2022-09-26T14:49:40.477Z,89.8
2022-09-26T14:50:54.565Z,89.9
2022-09-26T14:52:08.725Z,89.9
2022-09-26T14:53:22.863Z,89.6
2022-09-26T14:54:36.989Z,89.4
2022-09-26T14:55:51.138Z,89.3
2022-09-26T14:57:05.258Z,89.5
2022-09-26T14:58:19.345Z,89.7
2022-09-26T14:59:33.501Z,89.8
2022-09-26T15:00:47.614Z,89.6
2022-09-26T15:01:58.209Z,89
2022-09-26T15:04:22.767Z,89.3
2022-09-26T15:06:51.037Z,89.3
2022-09-26T15:08:05.182Z,89.5
2022-09-26T15:09:19.335Z,89.7
2022-09-26T15:10:33.431Z,89.6
2022-09-26T15:14:15.796Z,89.2
2022-09-26T15:15:29.935Z,89.2
2022-09-26T15:16:40.795Z,89.2
2022-09-26T15:17:51.644Z,89.3
2022-09-26T15:19:05.808Z,89.1
2022-09-26T15:20:20.034Z,89
2022-09-26T15:21:42.269Z,89.1
2022-09-26T15:24:10.496Z,89.2
2022-09-26T15:25:24.642Z,89.2
2022-09-26T15:26:38.793Z,89
2022-09-26T15:27:52.913Z,89.1
2022-09-26T15:29:03.750Z,89.3
2022-09-26T15:30:14.636Z,89.4
2022-09-26T15:31:28.725Z,89.3
2022-09-26T15:32:42.896Z,89.4
2022-09-26T15:33:56.989Z,89.7
2022-09-26T15:35:11.163Z,89.8
2022-09-26T15:37:39.370Z,89.8
2022-09-26T15:38:53.621Z,89.8
2022-09-26T15:40:15.834Z,89.8
2022-09-26T15:41:26.675Z,90.2
2022-09-26T15:45:05.788Z,90.3
2022-09-26T15:46:19.953Z,90.3
2022-09-26T15:47:34.048Z,90.5
2022-09-26T15:48:48.182Z,90.5
2022-09-26T15:50:02.321Z,90.8
2022-09-26T15:51:16.488Z,90.9
2022-09-26T15:52:30.578Z,91
2022-09-26T15:53:44.703Z,91
2022-09-26T15:56:06.487Z,91.3
2022-09-26T15:57:20.561Z,91.3
2022-09-26T15:58:34.674Z,91.4
2022-09-26T15:59:48.859Z,91.4
2022-09-26T16:01:02.933Z,91.4
2022-09-26T16:02:17.098Z,91.4
2022-09-26T16:03:31.219Z,91.5
2022-09-26T16:04:45.319Z,91.6
2022-09-26T16:07:13.609Z,91.6
2022-09-26T16:09:35.355Z,91.8
2022-09-26T16:12:03.561Z,91.8
2022-09-26T16:13:17.689Z,91.7
2022-09-26T16:14:31.864Z,91.4
2022-09-26T16:15:45.968Z,91.4
2022-09-26T16:17:00.111Z,91.4
2022-09-26T16:18:14.196Z,91.5
2022-09-26T16:19:28.383Z,91.6
2022-09-26T16:20:42.465Z,91.6
2022-09-26T16:21:53.385Z,91.7
2022-09-26T16:23:04.208Z,91.8
2022-09-26T16:24:18.376Z,91.9
2022-09-26T16:25:32.471Z,91.8
2022-09-26T16:26:46.585Z,91.9
2022-09-26T16:28:00.815Z,92.1
2022-09-26T16:29:23.047Z,92.3
2022-09-26T16:31:51.317Z,92.3
2022-09-26T16:33:05.446Z,92.4
2022-09-26T16:34:16.269Z,92.5
2022-09-26T16:36:41.304Z,92.5
2022-09-26T16:37:55.447Z,92.7
2022-09-26T16:39:09.567Z,92.4
2022-09-26T16:40:23.684Z,92.3
2022-09-26T16:41:37.781Z,92.4
2022-09-26T16:42:51.948Z,92.4
2022-09-26T16:44:06.060Z,92.5
2022-09-26T16:45:20.160Z,92.3
2022-09-26T16:46:34.320Z,92.3
2022-09-26T16:47:45.181Z,92.4
2022-09-26T16:50:10.190Z,92.5
2022-09-26T16:51:24.316Z,92.5
2022-09-26T16:55:06.741Z,92.5
2022-09-26T16:57:34.920Z,92.4
2022-09-26T16:58:49.099Z,92.3
2022-09-26T17:00:03.231Z,92.4
2022-09-26T17:02:24.959Z,92.4
2022-09-26T17:04:53.215Z,92.3
2022-09-26T17:06:07.356Z,92.3
2022-09-26T17:07:21.440Z,92.4
2022-09-26T17:08:35.588Z,92.5
2022-09-26T17:09:49.739Z,92.3
2022-09-26T17:11:03.854Z,92.2
2022-09-26T17:12:17.934Z,92.1
2022-09-26T17:13:32.091Z,92
2022-09-26T17:14:42.960Z,92
2022-09-26T17:15:53.412Z,92.1
2022-09-26T17:17:07.505Z,92.1
2022-09-26T17:18:21.641Z,92.1
2022-09-26T17:19:35.742Z,92.3
2022-09-26T17:20:49.898Z,92.4
2022-09-26T17:22:04.073Z,92.5
2022-09-26T17:24:32.295Z,92.2
2022-09-26T17:25:46.415Z,92.2
2022-09-26T17:27:00.550Z,92.2
2022-09-26T17:28:11.410Z,92.3
2022-09-26T17:29:22.271Z,92.2
2022-09-26T17:30:36.380Z,92.3
2022-09-26T17:31:50.650Z,92.4
2022-09-26T17:33:12.883Z,92.2
2022-09-26T17:34:27.010Z,92.2
2022-09-26T17:35:41.112Z,92.2
2022-09-26T17:36:55.219Z,92.2
2022-09-26T17:38:09.404Z,92.4
2022-09-26T17:39:23.519Z,92.4
2022-09-26T17:40:34.393Z,92.5
2022-09-26T17:41:45.210Z,92.6
2022-09-26T17:42:59.341Z,92.7
2022-09-26T17:44:13.476Z,92.7
2022-09-26T17:45:27.663Z,92.3
2022-09-26T17:46:49.897Z,92.3
2022-09-26T17:48:04.086Z,92.5
2022-09-26T17:49:18.190Z,92.6
2022-09-26T17:50:32.342Z,92.8
2022-09-26T17:51:46.415Z,92.8
2022-09-26T17:54:08.162Z,92.4
2022-09-26T17:55:22.290Z,92.5
2022-09-26T17:56:36.425Z,92.6
2022-09-26T17:57:50.583Z,92.8
2022-09-26T17:59:04.679Z,92.8
2022-09-26T18:00:18.821Z,92.8
2022-09-26T18:01:32.965Z,92.8
2022-09-26T18:02:47.085Z,93
2022-09-26T18:04:01.208Z,92.5
2022-09-26T18:05:15.324Z,92.6
2022-09-26T18:07:37.068Z,92.8
2022-09-26T18:08:51.286Z,92.9
2022-09-26T18:10:13.498Z,93
2022-09-26T18:11:27.616Z,93.1
2022-09-26T18:12:41.742Z,93.2
2022-09-26T18:13:55.933Z,93.3
2022-09-26T18:15:10.046Z,93.3
2022-09-26T18:16:24.162Z,93.3
2022-09-26T18:17:38.287Z,93.4
2022-09-26T18:18:49.154Z,93.5
2022-09-26T18:19:59.998Z,93.6
2022-09-26T18:21:14.106Z,93.5
2022-09-26T18:22:28.325Z,93.4
2022-09-26T18:23:50.568Z,93.4
2022-09-26T18:26:18.870Z,93.6
2022-09-26T18:27:32.956Z,93.6
2022-09-26T18:30:01.207Z,93.5
2022-09-26T18:31:12.082Z,93.6
2022-09-26T18:32:22.953Z,93.7
2022-09-26T18:34:51.237Z,94
2022-09-26T18:37:19.508Z,94
2022-09-26T18:38:33.605Z,94
2022-09-26T18:39:47.710Z,94
2022-09-26T18:41:01.914Z,94
2022-09-26T18:42:24.141Z,94
2022-09-26T18:43:35.026Z,94.2
2022-09-26T18:44:45.878Z,94.3
2022-09-26T18:45:59.998Z,94.3
2022-09-26T18:47:14.125Z,94.5
2022-09-26T18:48:28.310Z,94.5
2022-09-26T18:50:56.528Z,94.5
2022-09-26T18:52:10.715Z,94.5
2022-09-26T18:53:24.843Z,94.5
2022-09-26T18:55:53.083Z,94.6
2022-09-26T18:58:14.505Z,94.6
2022-09-26T18:59:28.751Z,94.6
2022-09-26T19:00:50.997Z,94.6
2022-09-26T19:02:05.074Z,94.6
2022-09-26T19:03:19.248Z,94.6
2022-09-26T19:04:33.383Z,94.7
2022-09-26T19:05:47.449Z,94.6
2022-09-26T19:07:01.634Z,94.6
2022-09-26T19:10:43.963Z,94.6
2022-09-26T19:13:05.713Z,94.5
2022-09-26T19:16:48.140Z,94.4
2022-09-26T19:19:16.369Z,94.5
2022-09-26T19:20:30.499Z,94.5
2022-09-26T19:21:44.604Z,94.5
2022-09-26T19:22:58.796Z,94.5
2022-09-26T19:24:12.903Z,94.4
2022-09-26T19:25:23.717Z,94.4
2022-09-26T19:26:34.600Z,94.4
2022-09-26T19:27:48.781Z,94.5
2022-09-26T19:29:02.841Z,94.4
2022-09-26T19:31:31.125Z,94.4
2022-09-26T19:33:59.417Z,94.3
2022-09-26T19:35:13.534Z,94.3
2022-09-26T19:36:27.652Z,94.3
2022-09-26T19:37:41.748Z,94.2
2022-09-26T19:38:52.654Z,94.1
2022-09-26T19:41:17.597Z,93.6
2022-09-26T19:42:31.759Z,93.5
2022-09-26T19:43:45.897Z,93.4
2022-09-26T19:44:59.988Z,93.4
2022-09-26T19:46:14.179Z,93.4
2022-09-26T19:48:42.395Z,93.6
2022-09-26T19:51:10.670Z,93.8
2022-09-26T19:52:21.559Z,93.9
2022-09-26T19:53:31.929Z,94
2022-09-26T19:56:00.192Z,94.3
2022-09-26T19:57:14.377Z,94.4
2022-09-26T19:58:28.481Z,94.5
2022-09-26T20:00:56.764Z,94.7
2022-09-26T20:02:10.838Z,94.7
2022-09-26T20:03:24.974Z,94.8
2022-09-26T20:04:39.103Z,94.9
2022-09-26T20:07:00.874Z,95.1
2022-09-26T20:08:14.986Z,95.2
2022-09-26T20:09:29.068Z,95.2
2022-09-26T20:10:43.210Z,95.3
2022-09-26T20:11:57.384Z,95.3
2022-09-26T20:13:11.477Z,95.3
2022-09-26T20:14:25.622Z,95
2022-09-26T20:15:39.773Z,95.1
2022-09-26T20:16:53.897Z,95
2022-09-26T20:20:29.737Z,94.7
2022-09-26T20:21:43.859Z,94.7
2022-09-26T20:24:12.100Z,94.6
2022-09-26T20:25:26.248Z,94.6
2022-09-26T20:26:40.382Z,94.6
2022-09-26T20:27:54.494Z,94.6
2022-09-26T20:29:08.598Z,94.6
2022-09-26T20:30:22.762Z,94.6
2022-09-26T20:31:36.876Z,94.6
2022-09-26T20:32:47.731Z,94.5
2022-09-26T20:33:58.641Z,94.3
2022-09-26T20:35:12.710Z,94.3
2022-09-26T20:36:26.951Z,94
2022-09-26T20:37:49.194Z,94
2022-09-26T20:39:03.300Z,94
2022-09-26T20:41:31.607Z,94
2022-09-26T20:45:10.665Z,93.6
2022-09-26T20:46:21.572Z,93.5
2022-09-26T20:50:03.935Z,93.5
2022-09-26T20:51:18.100Z,93.3
2022-09-26T20:52:32.210Z,93.3
2022-09-26T20:53:46.325Z,93.3
2022-09-26T20:55:00.426Z,93.3
2022-09-26T20:56:14.588Z,93.3
2022-09-26T20:58:39.634Z,93.3
2022-09-26T20:59:50.471Z,93.3
2022-09-26T21:01:04.613Z,93.3
2022-09-26T21:02:18.676Z,93.3
2022-09-26T21:03:32.800Z,93.2
2022-09-26T21:04:46.978Z,93.1
2022-09-26T21:06:01.056Z,93